Aérodrome :
LOGIN :

S'inscrire | Disclaimer

   EN    FR    IT 

 










Légende :    VFR   VFR Marginal   IFR   IFR Intensif   IFR Très Intensif
Visi : 
Plafond : 
>= 8 km
>= 3000ft
5 à 8 km
1000 à 3000 ft
1500m à 5 km
500 à 1000 ft
800 à 1500m
200 à 500 ft
< 800m
< 200 ft
Symboles :   Orages  Brouillard  Fortes neiges  Fortes précipitations  Vent > 20 kt
SIGMETs :   Divers  Orages  Givrage  Turbulence  Onde Orograph.  Cendres Volcan.






- Altitude de l'aérodrome : 587 ft
- Code IATA : XCR


LFOK - Chalons Vatry

DERNIER METAR :
  • 161700Z AUTO 18017KT 1800 SN BR SCT004/// OVC011/// ///TCU M01/M02 Q1020 TEMPO 1200 SN OVC001

METARs EXPIRÉS :
  • 161630Z AUTO 18015KT 1800 SN BR SCT004 OVC009 M01/M02 Q1021 TEMPO 1200 SN OVC001
  • 161600Z AUTO 19015KT 1300 1200 R10/1700D R28/1900N SN BR BKN004 BKN010 OVC014 M02/M02 Q1021 TEMPO OVC001
  • 161530Z AUTO 18016KT 1200 1100 R10/1700U R28/1700U SN BR BKN004 BKN012 OVC018 M01/M02 Q1022 TEMPO OVC001
  • 161500Z AUTO 19013KT 2200 -SN BR BKN004 BKN020 BKN025 M01/M01 Q1023 TEMPO 1200 SN OVC001
  • 161430Z AUTO 19014KT 1700 -SN BR BKN005 BKN014 OVC019 M01/M02 Q1023 TEMPO 1200 SN OVC001

TAF TAF LFOK
Valide du 16 à 12h jusqu'au 17 à 12h UTC


161100Z 1612/1712 20010KT 4000 BR BKN003
TEMPO 1613/1623 1200 SN OVC001
FM162300 28013KT 4000 BR OVC006
TEMPO 1623/1711 2000 DZRA OVC003



MET'MAP, la Météo Aéronautique d'un coup d'oeil ! - Copyright ORBIFLY Décembre 2007 - Disclaimer

ORBIFLY MET'MAP TEAM :

Programmation & Développement : Alexandra Zaïnal
Sur une idée originale de : Baudouin d'Aumeries
Assistance à la programmation : Marc-Olivier Méhu
Soutien technique & logistique : Manuel Goepfert

Contact : metmap@orbifly.com




SOURCES & CREDITS :

   NOAA